Terminal Aerodrome Forecast
Issued by NWS Louisville, KY

Home | Current Version | Previous Version | Text Only | Print | Product List | Glossary On
Versions: 1 2 3 4 5 6 7 8 9 10 11 12 13 14 15 16 17 18 19 20 21 22 23
000
FTUS43 KLMK 011800 AAA
TAFSDF
TAF AMD
KSDF 011802Z 0118/0224 26006KT 6SM HZ VCSH BKN035
      TEMPO 0118/0120 3SM SHRA BKN030
     FM012000 24007KT P6SM VCTS BKN045CB
     FM012300 22006KT P6SM VCSH BKN050
     FM020600 20005KT P6SM VCTS BKN040CB
     FM021000 21006KT P6SM VCSH BKN060
     FM021800 22007KT P6SM VCTS BKN040CB=

USA.gov is the U.S. government's official web portal to all federal, state and local government web resources and services.